createdAt,value
2018-08-25T00:01:04.545Z,0
2018-08-25T00:02:14.262Z,0
2018-08-25T00:03:23.959Z,0
2018-08-25T00:04:33.671Z,0
2018-08-25T00:05:43.636Z,0
2018-08-25T00:06:53.340Z,0
2018-08-25T00:08:03.097Z,0
2018-08-25T00:09:13.075Z,0
2018-08-25T00:10:22.809Z,0
2018-08-25T00:11:32.784Z,0
2018-08-25T00:12:42.757Z,0
2018-08-25T00:13:52.731Z,0
2018-08-25T00:15:02.711Z,0
2018-08-25T00:16:12.415Z,0
2018-08-25T00:17:22.385Z,0
2018-08-25T00:18:32.097Z,0
2018-08-25T00:19:42.065Z,0
2018-08-25T00:20:52.035Z,0
2018-08-25T00:22:01.743Z,0
2018-08-25T00:23:11.719Z,0
2018-08-25T00:24:21.681Z,0
2018-08-25T00:25:31.379Z,0
2018-08-25T00:26:41.084Z,0
2018-08-25T00:27:51.052Z,0
2018-08-25T00:29:01.021Z,0
2018-08-25T00:30:10.467Z,0
2018-08-25T00:31:20.457Z,0
2018-08-25T00:32:30.158Z,0
2018-08-25T00:33:40.120Z,0
2018-08-25T00:34:50.080Z,0
2018-08-25T00:35:59.780Z,0
2018-08-25T00:37:09.743Z,0
2018-08-25T00:38:19.446Z,0
2018-08-25T00:39:29.158Z,0
2018-08-25T00:40:39.135Z,0
2018-08-25T00:41:48.840Z,0
2018-08-25T00:42:58.567Z,0
2018-08-25T00:44:08.532Z,0
2018-08-25T00:45:18.513Z,0
2018-08-25T00:46:28.213Z,0
2018-08-25T00:47:38.315Z,0
2018-08-25T00:48:48.080Z,0
2018-08-25T00:49:58.051Z,0
2018-08-25T00:51:07.772Z,0
2018-08-25T00:52:17.475Z,0
2018-08-25T00:53:27.178Z,0
2018-08-25T00:54:37.150Z,0
2018-08-25T00:55:46.875Z,0
2018-08-25T00:56:56.845Z,0
2018-08-25T00:58:06.822Z,0
2018-08-25T00:59:16.915Z,0
2018-08-25T01:00:26.907Z,0
2018-08-25T01:01:36.865Z,0
2018-08-25T01:02:46.596Z,0
2018-08-25T01:03:56.057Z,0
2018-08-25T01:05:06.060Z,0
2018-08-25T01:06:15.767Z,0
2018-08-25T01:07:25.736Z,0
2018-08-25T01:08:35.702Z,0
2018-08-25T01:09:45.675Z,0
2018-08-25T01:10:55.638Z,0
2018-08-25T01:12:05.391Z,0
2018-08-25T01:13:15.376Z,0
2018-08-25T01:14:25.328Z,0
2018-08-25T01:15:35.424Z,0
2018-08-25T01:16:45.158Z,0
2018-08-25T01:17:55.133Z,0
2018-08-25T01:19:05.110Z,0
2018-08-25T01:20:15.076Z,0
2018-08-25T01:21:24.515Z,0
2018-08-25T01:22:34.491Z,0
2018-08-25T01:23:44.449Z,0
2018-08-25T01:24:54.148Z,0
2018-08-25T01:26:04.105Z,0
2018-08-25T01:27:13.805Z,0
2018-08-25T01:28:23.752Z,0
2018-08-25T01:29:33.460Z,0
2018-08-25T01:30:43.432Z,0
2018-08-25T01:31:53.396Z,0
2018-08-25T01:33:03.370Z,0
2018-08-25T01:34:13.333Z,0
2018-08-25T01:35:23.287Z,0
2018-08-25T01:36:33.251Z,0
2018-08-25T01:37:43.216Z,0
2018-08-25T01:38:52.923Z,0
2018-08-25T01:40:02.883Z,0
2018-08-25T01:41:12.854Z,0
2018-08-25T01:42:22.570Z,0
2018-08-25T01:43:32.281Z,0
2018-08-25T01:44:41.989Z,0
2018-08-25T01:45:51.441Z,0
2018-08-25T01:47:01.394Z,0
2018-08-25T01:48:10.843Z,0
2018-08-25T01:49:20.559Z,0
2018-08-25T01:50:30.521Z,0
2018-08-25T01:51:40.496Z,0
2018-08-25T01:52:50.460Z,0
2018-08-25T01:54:00.421Z,0
2018-08-25T01:55:10.378Z,0
2018-08-25T01:56:20.334Z,0
2018-08-25T01:57:30.302Z,0
2018-08-25T01:58:40.004Z,0
2018-08-25T01:59:49.705Z,0
2018-08-25T02:00:59.409Z,0
2018-08-25T02:02:09.368Z,0
2018-08-25T02:03:19.337Z,0
2018-08-25T02:04:29.038Z,0
2018-08-25T02:05:38.729Z,0
2018-08-25T02:06:48.701Z,0
2018-08-25T02:07:58.414Z,0
2018-08-25T02:09:08.379Z,0
2018-08-25T02:10:18.097Z,0
2018-08-25T02:11:28.073Z,0
2018-08-25T02:12:37.778Z,0
2018-08-25T02:13:47.759Z,0
2018-08-25T02:14:57.730Z,0
2018-08-25T02:16:07.685Z,0
2018-08-25T02:17:17.646Z,0
2018-08-25T02:18:27.345Z,0
2018-08-25T02:19:37.357Z,0
2018-08-25T02:20:46.807Z,0
2018-08-25T02:21:56.766Z,0
2018-08-25T02:23:06.778Z,0
2018-08-25T02:24:16.748Z,0
2018-08-25T02:25:26.704Z,0
2018-08-25T02:26:36.153Z,0
2018-08-25T02:27:46.119Z,0
2018-08-25T02:28:56.084Z,0
2018-08-25T02:30:06.077Z,0
2018-08-25T02:31:16.039Z,0
2018-08-25T02:32:26.006Z,0
2018-08-25T02:33:35.975Z,0
2018-08-25T02:34:45.708Z,0
2018-08-25T02:35:55.665Z,0
2018-08-25T02:37:05.367Z,0
2018-08-25T02:38:14.816Z,0
2018-08-25T02:39:24.514Z,0
2018-08-25T02:40:34.494Z,0
2018-08-25T02:41:44.208Z,0
2018-08-25T02:42:54.180Z,0
2018-08-25T02:44:04.140Z,0
2018-08-25T02:45:14.106Z,0
2018-08-25T02:46:23.813Z,0
2018-08-25T02:47:33.517Z,0
2018-08-25T02:48:43.475Z,0
2018-08-25T02:49:53.441Z,0
2018-08-25T02:51:03.145Z,0
2018-08-25T02:52:12.848Z,0
2018-08-25T02:53:22.818Z,0
2018-08-25T02:54:32.785Z,0
2018-08-25T02:55:42.746Z,0
2018-08-25T02:56:52.706Z,0
2018-08-25T02:58:02.406Z,0
2018-08-25T02:59:12.366Z,0
2018-08-25T03:00:22.329Z,0
2018-08-25T03:01:32.299Z,0
2018-08-25T03:02:42.005Z,0
2018-08-25T03:03:51.977Z,0
2018-08-25T03:05:01.935Z,0
2018-08-25T03:06:11.918Z,0
2018-08-25T03:07:21.632Z,0
2018-08-25T03:08:31.336Z,0
2018-08-25T03:09:41.308Z,0
2018-08-25T03:10:51.015Z,0
2018-08-25T03:12:00.984Z,0
2018-08-25T03:13:10.690Z,0
2018-08-25T03:14:20.654Z,0
2018-08-25T03:15:30.616Z,0
2018-08-25T03:16:40.572Z,0
2018-08-25T03:17:50.288Z,0
2018-08-25T03:19:00.258Z,0
2018-08-25T03:20:09.958Z,0
2018-08-25T03:21:19.919Z,0
2018-08-25T03:22:29.882Z,0
2018-08-25T03:23:39.589Z,0
2018-08-25T03:24:49.551Z,0
2018-08-25T03:25:59.532Z,0
2018-08-25T03:27:09.232Z,0
2018-08-25T03:28:18.962Z,0
2018-08-25T03:29:28.932Z,0
2018-08-25T03:30:38.925Z,0
2018-08-25T03:31:48.900Z,0
2018-08-25T03:32:58.883Z,0
2018-08-25T03:34:08.593Z,0
2018-08-25T03:35:17.520Z,0
2018-08-25T03:36:27.229Z,0
2018-08-25T03:37:37.184Z,0
2018-08-25T03:38:47.157Z,4
2018-08-25T03:39:56.891Z,4
2018-08-25T03:41:06.864Z,4
2018-08-25T03:42:16.827Z,8
2018-08-25T03:43:26.801Z,8
2018-08-25T03:44:36.760Z,8
2018-08-25T03:45:46.717Z,12
2018-08-25T03:46:56.683Z,16
2018-08-25T03:48:06.656Z,20
2018-08-25T03:49:16.366Z,20
2018-08-25T03:50:26.070Z,28
2018-08-25T03:51:36.031Z,28
2018-08-25T03:52:45.988Z,32
2018-08-25T03:53:55.942Z,36
2018-08-25T03:55:05.649Z,40
2018-08-25T03:56:15.356Z,44
2018-08-25T03:57:25.061Z,48
2018-08-25T03:58:34.525Z,52
2018-08-25T03:59:44.482Z,56
2018-08-25T04:00:54.196Z,68
2018-08-25T04:02:04.190Z,72
2018-08-25T04:03:14.143Z,76
2018-08-25T04:04:24.119Z,84
2018-08-25T04:05:33.567Z,88
2018-08-25T04:06:43.265Z,96
2018-08-25T04:07:53.222Z,108
2018-08-25T04:09:02.930Z,116
2018-08-25T04:10:12.370Z,132
2018-08-25T04:11:22.339Z,152
2018-08-25T04:12:32.049Z,184
2018-08-25T04:13:42.001Z,212
2018-08-25T04:14:51.798Z,248
2018-08-25T04:16:01.964Z,280
2018-08-25T04:17:11.926Z,312
2018-08-25T04:18:21.630Z,352
2018-08-25T04:19:31.590Z,384
2018-08-25T04:20:41.305Z,416
2018-08-25T04:21:51.267Z,452
2018-08-25T04:23:01.239Z,488
2018-08-25T04:24:10.946Z,516
2018-08-25T04:25:20.644Z,540
2018-08-25T04:26:30.604Z,560
2018-08-25T04:27:40.312Z,588
2018-08-25T04:28:50.273Z,624
2018-08-25T04:29:59.727Z,688
2018-08-25T04:31:09.684Z,752
2018-08-25T04:32:19.654Z,816
2018-08-25T04:33:29.808Z,884
2018-08-25T04:34:39.883Z,944
2018-08-25T04:35:49.585Z,988
2018-08-25T04:36:59.611Z,1028
2018-08-25T04:38:09.311Z,1072
2018-08-25T04:39:19.275Z,1120
2018-08-25T04:40:29.245Z,1164
2018-08-25T04:41:39.206Z,1204
2018-08-25T04:42:48.656Z,1252
2018-08-25T04:43:58.614Z,1300
2018-08-25T04:45:08.623Z,1364
2018-08-25T04:46:18.598Z,1420
2018-08-25T04:47:28.630Z,1468
2018-08-25T04:48:38.335Z,1528
2018-08-25T04:49:48.090Z,1616
2018-08-25T04:50:58.039Z,1720
2018-08-25T04:52:07.742Z,1788
2018-08-25T04:53:17.450Z,1868
2018-08-25T04:54:27.452Z,1976
2018-08-25T04:55:37.416Z,2096
2018-08-25T04:56:47.374Z,2180
2018-08-25T04:57:57.088Z,2252
2018-08-25T04:59:07.048Z,2308
2018-08-25T05:00:17.012Z,2356
2018-08-25T05:01:26.972Z,2424
2018-08-25T05:02:36.671Z,2480
2018-08-25T05:03:45.860Z,2540
2018-08-25T05:04:55.825Z,2584
2018-08-25T05:06:05.528Z,2640
2018-08-25T05:07:15.238Z,2732
2018-08-25T05:08:25.226Z,2872
2018-08-25T05:09:34.939Z,3024
2018-08-25T05:10:44.903Z,3144
2018-08-25T05:11:54.877Z,3264
2018-08-25T05:13:04.835Z,3392
2018-08-25T05:14:14.549Z,3500
2018-08-25T05:15:24.507Z,3568
2018-08-25T05:16:33.954Z,3592
2018-08-25T05:17:43.920Z,3640
2018-08-25T05:18:53.632Z,3752
2018-08-25T05:20:03.344Z,3928
2018-08-25T05:21:13.342Z,4160
2018-08-25T05:22:23.305Z,4388
2018-08-25T05:23:33.312Z,4540
2018-08-25T05:24:43.022Z,4632
2018-08-25T05:25:52.737Z,4648
2018-08-25T05:27:02.449Z,4640
2018-08-25T05:28:12.409Z,4664
2018-08-25T05:29:22.379Z,4756
2018-08-25T05:30:32.360Z,4892
2018-08-25T05:31:42.071Z,5016
2018-08-25T05:32:51.778Z,5116
2018-08-25T05:34:01.750Z,5216
2018-08-25T05:35:11.733Z,5368
2018-08-25T05:36:21.698Z,5548
2018-08-25T05:37:31.704Z,5688
2018-08-25T05:38:41.669Z,5844
2018-08-25T05:39:51.697Z,6020
2018-08-25T05:41:01.661Z,6160
2018-08-25T05:42:11.109Z,6252
2018-08-25T05:43:21.077Z,6292
2018-08-25T05:44:31.039Z,6320
2018-08-25T05:45:40.757Z,6376
2018-08-25T05:46:50.470Z,6508
2018-08-25T05:48:00.177Z,6664
2018-08-25T05:49:09.876Z,6816
2018-08-25T05:50:19.858Z,6932
2018-08-25T05:51:29.828Z,7036
2018-08-25T05:52:39.535Z,7140
2018-08-25T05:53:48.994Z,7216
2018-08-25T05:54:58.956Z,7296
2018-08-25T05:56:08.930Z,7412
2018-08-25T05:57:18.976Z,7536
2018-08-25T05:58:28.939Z,7896
2018-08-25T05:59:38.900Z,8384
2018-08-25T06:00:48.874Z,8696
2018-08-25T06:01:58.579Z,8924
2018-08-25T06:03:08.558Z,9132
2018-08-25T06:04:18.528Z,9424
2018-08-25T06:05:28.228Z,9816
2018-08-25T06:06:38.414Z,10260
2018-08-25T06:07:48.358Z,10504
2018-08-25T06:08:58.321Z,10520
2018-08-25T06:10:08.300Z,10484
2018-08-25T06:11:18.271Z,10624
2018-08-25T06:12:28.240Z,10760
2018-08-25T06:13:38.745Z,10796
2018-08-25T06:14:48.221Z,10636
2018-08-25T06:15:58.242Z,10364
2018-08-25T06:17:08.214Z,10128
2018-08-25T06:18:17.927Z,9968
2018-08-25T06:19:28.094Z,10008
2018-08-25T06:20:38.049Z,9724
2018-08-25T06:21:48.000Z,9848
2018-08-25T06:22:57.453Z,10176
2018-08-25T06:24:07.419Z,10364
2018-08-25T06:25:17.383Z,10292
2018-08-25T06:26:27.370Z,10100
2018-08-25T06:27:37.090Z,9928
2018-08-25T06:28:46.824Z,10052
2018-08-25T06:29:57.158Z,10156
2018-08-25T06:31:07.169Z,9948
2018-08-25T06:32:16.872Z,9880
2018-08-25T06:33:26.824Z,9940
2018-08-25T06:34:36.781Z,10324
2018-08-25T06:35:46.487Z,10884
2018-08-25T06:36:56.446Z,11532
2018-08-25T06:38:06.593Z,12152
2018-08-25T06:39:16.566Z,12696
2018-08-25T06:40:26.013Z,12720
2018-08-25T06:41:35.995Z,12312
2018-08-25T06:42:45.929Z,12048
2018-08-25T06:43:55.632Z,11844
2018-08-25T06:45:05.593Z,11704
2018-08-25T06:46:15.060Z,11500
2018-08-25T06:47:25.039Z,11256
2018-08-25T06:48:35.000Z,11384
2018-08-25T06:49:44.709Z,11484
2018-08-25T06:50:54.671Z,11656
2018-08-25T06:52:04.387Z,11760
2018-08-25T06:53:14.228Z,12068
2018-08-25T06:54:24.240Z,12544
2018-08-25T06:55:33.959Z,13080
2018-08-25T06:56:43.924Z,13540
2018-08-25T06:57:53.660Z,14440
2018-08-25T06:59:03.634Z,15220
2018-08-25T07:00:13.356Z,15740
2018-08-25T07:01:23.319Z,15364
2018-08-25T07:02:32.523Z,14912
2018-08-25T07:03:42.498Z,14436
2018-08-25T07:04:52.472Z,14076
2018-08-25T07:06:02.379Z,14052
2018-08-25T07:07:12.495Z,14692
2018-08-25T07:08:21.949Z,15232
2018-08-25T07:09:31.925Z,16168
2018-08-25T07:10:41.919Z,17344
2018-08-25T07:11:51.627Z,17696
2018-08-25T07:13:02.090Z,17920
2018-08-25T07:14:11.699Z,17344
2018-08-25T07:15:21.660Z,17280
2018-08-25T07:16:31.375Z,17408
2018-08-25T07:17:41.327Z,17664
2018-08-25T07:18:51.435Z,16796
2018-08-25T07:20:01.490Z,16364
2018-08-25T07:21:11.218Z,16492
2018-08-25T07:22:21.199Z,16336
2018-08-25T07:23:30.650Z,16180
2018-08-25T07:24:40.622Z,16040
2018-08-25T07:25:50.155Z,16144
2018-08-25T07:27:00.099Z,15964
2018-08-25T07:28:10.070Z,15868
2018-08-25T07:29:19.783Z,15996
2018-08-25T07:30:29.770Z,16484
2018-08-25T07:31:39.743Z,16912
2018-08-25T07:32:49.705Z,17344
2018-08-25T07:33:59.676Z,17344
2018-08-25T07:35:09.636Z,17568
2018-08-25T07:36:19.606Z,17728
2018-08-25T07:37:29.051Z,17856
2018-08-25T07:38:39.013Z,18432
2018-08-25T07:39:48.985Z,19296
2018-08-25T07:40:58.955Z,20384
2018-08-25T07:42:08.932Z,21280
2018-08-25T07:43:18.636Z,21728
2018-08-25T07:44:28.364Z,22208
2018-08-25T07:45:38.090Z,22592
2018-08-25T07:46:48.056Z,22720
2018-08-25T07:47:58.037Z,22784
2018-08-25T07:49:08.018Z,23200
2018-08-25T07:50:17.987Z,23712
2018-08-25T07:51:27.445Z,23584
2018-08-25T07:52:37.182Z,23520
2018-08-25T07:53:47.328Z,23392
2018-08-25T07:54:57.479Z,23232
2018-08-25T07:56:07.464Z,21952
2018-08-25T07:57:17.441Z,21248
2018-08-25T07:58:27.317Z,21664
2018-08-25T07:59:37.362Z,22688
2018-08-25T08:00:47.086Z,23232
2018-08-25T08:01:57.041Z,22816
2018-08-25T08:03:07.012Z,23360
2018-08-25T08:04:16.981Z,24192
2018-08-25T08:05:27.092Z,25440
2018-08-25T08:06:36.906Z,25920
2018-08-25T08:07:46.880Z,26240
2018-08-25T08:08:56.328Z,26656
2018-08-25T08:10:06.036Z,26656
2018-08-25T08:11:16.033Z,27200
2018-08-25T08:12:25.621Z,27520
2018-08-25T08:13:35.593Z,27776
2018-08-25T08:14:45.331Z,27904
2018-08-25T08:15:55.291Z,27680
2018-08-25T08:17:05.260Z,27392
2018-08-25T08:18:15.210Z,26912
2018-08-25T08:19:24.923Z,26848
2018-08-25T08:20:34.638Z,27104
2018-08-25T08:21:44.365Z,27552
2018-08-25T08:22:53.827Z,29664
2018-08-25T08:24:03.810Z,37248
2018-08-25T08:25:13.775Z,34080
2018-08-25T08:26:23.750Z,27616
2018-08-25T08:27:33.475Z,29472
2018-08-25T08:28:43.183Z,34464
2018-08-25T08:29:53.150Z,40640
2018-08-25T08:31:02.860Z,30208
2018-08-25T08:32:12.314Z,32544
2018-08-25T08:33:22.281Z,32896
2018-08-25T08:34:31.999Z,41152
2018-08-25T08:35:41.963Z,41376
2018-08-25T08:36:51.696Z,40160
2018-08-25T08:38:01.430Z,29056
2018-08-25T08:39:11.447Z,36800
2018-08-25T08:40:21.148Z,40224
2018-08-25T08:41:30.873Z,44416
2018-08-25T08:42:40.846Z,45728
2018-08-25T08:43:50.549Z,46368
2018-08-25T08:45:00.538Z,47872
2018-08-25T08:46:10.538Z,48224
2018-08-25T08:47:20.680Z,49760
2018-08-25T08:48:30.768Z,47808
2018-08-25T08:49:54.280Z,40896
2018-08-25T08:51:04.328Z,44512
2018-08-25T08:52:14.314Z,41952
2018-08-25T08:53:24.294Z,44224
2018-08-25T08:54:33.998Z,44512
2018-08-25T08:55:43.973Z,37696
2018-08-25T08:56:53.938Z,40032
2018-08-25T08:58:03.670Z,37408
2018-08-25T08:59:13.666Z,42912
2018-08-25T09:00:23.641Z,39136
2018-08-25T09:01:33.362Z,36928
2018-08-25T09:02:43.353Z,39072
2018-08-25T09:03:53.070Z,49920
2018-08-25T09:05:03.056Z,52000
2018-08-25T09:06:13.036Z,54720
2018-08-25T09:07:23.003Z,56576
2018-08-25T09:08:32.965Z,53472
2018-08-25T09:09:42.436Z,54016
2018-08-25T09:10:52.402Z,33312
2018-08-25T09:12:02.363Z,52224
2018-08-25T09:13:12.133Z,33312
2018-08-25T09:14:21.839Z,59168
2018-08-25T09:15:31.814Z,54784
2018-08-25T09:16:41.785Z,59680
2018-08-25T09:17:51.510Z,61792
2018-08-25T09:19:01.487Z,61088
2018-08-25T09:20:11.468Z,62784
2018-08-25T09:21:21.432Z,63936
2018-08-25T09:22:31.395Z,66144
2018-08-25T09:23:41.370Z,67392
2018-08-25T09:24:51.339Z,62528
2018-08-25T09:26:00.805Z,64224
2018-08-25T09:27:10.793Z,64224
2018-08-25T09:28:20.793Z,67168
2018-08-25T09:29:30.766Z,68096
2018-08-25T09:30:40.492Z,67072
2018-08-25T09:31:50.218Z,70048
2018-08-25T09:32:59.932Z,70976
2018-08-25T09:34:09.954Z,71840
2018-08-25T09:35:19.977Z,53376
2018-08-25T09:36:30.704Z,76832
2018-08-25T09:37:41.063Z,45088
2018-08-25T09:38:51.037Z,76320
2018-08-25T09:40:00.755Z,77088
2018-08-25T09:41:10.479Z,75488
2018-08-25T09:42:20.467Z,78240
2018-08-25T09:43:30.449Z,78880
2018-08-25T09:44:40.175Z,78016
2018-08-25T09:45:49.896Z,53824
2018-08-25T09:47:00.089Z,83072
2018-08-25T09:48:10.188Z,74944
2018-08-25T09:49:19.902Z,32224
2018-08-25T09:50:29.622Z,37024
2018-08-25T09:51:39.599Z,24160
2018-08-25T09:52:49.569Z,22720
2018-08-25T09:53:59.290Z,24192
2018-08-25T09:55:09.280Z,25248
2018-08-25T09:56:19.000Z,23744
2018-08-25T09:57:28.729Z,23936
2018-08-25T09:58:38.435Z,24512
2018-08-25T09:59:48.168Z,25632
2018-08-25T10:00:58.150Z,28000
2018-08-25T10:02:08.149Z,31488
2018-08-25T10:03:17.894Z,32000
2018-08-25T10:04:27.605Z,32320
2018-08-25T10:05:37.070Z,33952
2018-08-25T10:06:47.034Z,37600
2018-08-25T10:07:57.014Z,34016
2018-08-25T10:09:06.993Z,27744
2018-08-25T10:10:16.962Z,24992
2018-08-25T10:11:26.687Z,24416
2018-08-25T10:12:36.146Z,25632
2018-08-25T10:13:46.126Z,27456
2018-08-25T10:14:56.118Z,29760
2018-08-25T10:16:05.845Z,30080
2018-08-25T10:17:15.570Z,30208
2018-08-25T10:18:25.300Z,22912
2018-08-25T10:19:35.264Z,24512
2018-08-25T10:20:44.982Z,25152
2018-08-25T10:21:54.969Z,27008
2018-08-25T10:23:04.974Z,30784
2018-08-25T10:24:15.087Z,33792
2018-08-25T10:25:24.807Z,62528
2018-08-25T10:26:34.269Z,39584
2018-08-25T10:27:44.234Z,43264
2018-08-25T10:28:54.271Z,51296
2018-08-25T10:30:04.322Z,34720
2018-08-25T10:31:14.297Z,32096
2018-08-25T10:32:24.298Z,30400
2018-08-25T10:33:33.744Z,29472
2018-08-25T10:34:43.716Z,26528
2018-08-25T10:35:53.707Z,24928
2018-08-25T10:37:03.688Z,25376
2018-08-25T10:38:13.402Z,24640
2018-08-25T10:39:23.388Z,26336
2018-08-25T10:40:33.384Z,32128
2018-08-25T10:41:43.709Z,76192
2018-08-25T10:42:53.735Z,29472
2018-08-25T10:44:03.186Z,23296
2018-08-25T10:45:12.941Z,21696
2018-08-25T10:46:22.918Z,22176
2018-08-25T10:47:32.636Z,25184
2018-08-25T10:48:42.085Z,30240
2018-08-25T10:49:51.822Z,31168
2018-08-25T10:51:01.530Z,36960
2018-08-25T10:52:11.247Z,69920
2018-08-25T10:53:21.232Z,40416
2018-08-25T10:54:30.948Z,36672
2018-08-25T10:55:40.931Z,31168
2018-08-25T10:56:50.640Z,30880
2018-08-25T10:58:00.354Z,30720
2018-08-25T10:59:10.065Z,32896
2018-08-25T11:00:20.492Z,34080
2018-08-25T11:01:30.450Z,32416
2018-08-25T11:02:40.448Z,31264
2018-08-25T11:03:50.428Z,32512
2018-08-25T11:05:00.410Z,44320
2018-08-25T11:06:10.388Z,57472
2018-08-25T11:07:20.381Z,53280
2018-08-25T11:08:30.117Z,45568
2018-08-25T11:09:40.091Z,39104
2018-08-25T11:10:50.082Z,35136
2018-08-25T11:11:59.866Z,31968
2018-08-25T11:13:09.586Z,29440
2018-08-25T11:14:19.060Z,25664
2018-08-25T11:15:29.043Z,21888
2018-08-25T11:16:39.388Z,18528
2018-08-25T11:17:49.357Z,15944
2018-08-25T11:18:59.334Z,14336
2018-08-25T11:20:09.066Z,13204
2018-08-25T11:21:18.785Z,12620
2018-08-25T11:22:28.775Z,12788
2018-08-25T11:23:38.650Z,13484
2018-08-25T11:24:48.445Z,14784
2018-08-25T11:25:57.911Z,17152
2018-08-25T11:27:07.634Z,20096
2018-08-25T11:28:17.631Z,23680
2018-08-25T11:29:27.417Z,28320
2018-08-25T11:30:37.401Z,34528
2018-08-25T11:31:47.382Z,44288
2018-08-25T11:32:57.102Z,54368
2018-08-25T11:34:07.083Z,92800
2018-08-25T11:35:17.063Z,78400
2018-08-25T11:36:27.030Z,66816
2018-08-25T11:37:37.133Z,72448
2018-08-25T11:38:47.272Z,71296
2018-08-25T11:39:57.253Z,67456
2018-08-25T11:41:07.256Z,74720
2018-08-25T11:42:17.234Z,100928
2018-08-25T11:43:27.231Z,64960
2018-08-25T11:44:36.954Z,73664
2018-08-25T11:45:46.934Z,60224
2018-08-25T11:46:56.645Z,60768
2018-08-25T11:48:06.619Z,65216
2018-08-25T11:49:16.598Z,65568
2018-08-25T11:50:26.320Z,78240
2018-08-25T11:51:35.528Z,60064
2018-08-25T11:52:45.259Z,71744
2018-08-25T11:53:55.315Z,57344
2018-08-25T11:55:05.403Z,57568
2018-08-25T11:56:15.393Z,52416
2018-08-25T11:57:25.126Z,46400
2018-08-25T11:58:34.588Z,45024
2018-08-25T11:59:44.568Z,44096
2018-08-25T12:00:54.557Z,43360
2018-08-25T12:02:04.569Z,50112
2018-08-25T12:03:14.306Z,59424
2018-08-25T12:04:24.317Z,61984
2018-08-25T12:05:34.292Z,61600
2018-08-25T12:06:44.322Z,56288
2018-08-25T12:07:53.997Z,80160
2018-08-25T12:09:03.713Z,70048
2018-08-25T12:10:13.436Z,82048
2018-08-25T12:11:23.422Z,42176
2018-08-25T12:12:33.138Z,39680
2018-08-25T12:13:42.652Z,41184
2018-08-25T12:14:52.618Z,50464
2018-08-25T12:16:02.602Z,26752
2018-08-25T12:17:12.571Z,20928
2018-08-25T12:18:22.546Z,16380
2018-08-25T12:19:32.535Z,14308
2018-08-25T12:20:42.266Z,14164
2018-08-25T12:21:51.712Z,14728
2018-08-25T12:23:01.701Z,14668
2018-08-25T12:24:12.064Z,13464
2018-08-25T12:25:22.183Z,11876
2018-08-25T12:26:31.909Z,10544
2018-08-25T12:27:41.878Z,9824
2018-08-25T12:28:51.847Z,9236
2018-08-25T12:30:01.822Z,8956
2018-08-25T12:31:11.609Z,9208
2018-08-25T12:32:21.588Z,9596
2018-08-25T12:33:31.845Z,9584
2018-08-25T12:34:42.032Z,9104
2018-08-25T12:35:51.753Z,8820
2018-08-25T12:37:01.713Z,8812
2018-08-25T12:38:11.438Z,8840
2018-08-25T12:39:21.708Z,8752
2018-08-25T12:40:31.171Z,8572
2018-08-25T12:41:41.128Z,8404
2018-08-25T12:42:51.107Z,8160
2018-08-25T12:44:00.813Z,7768
2018-08-25T12:45:10.787Z,7240
2018-08-25T12:46:20.530Z,6812
2018-08-25T12:47:30.508Z,6704
2018-08-25T12:48:40.495Z,6680
2018-08-25T12:49:50.542Z,7064
2018-08-25T12:51:00.251Z,7376
2018-08-25T12:52:09.979Z,7500
2018-08-25T12:53:19.688Z,7676
2018-08-25T12:54:29.421Z,7772
2018-08-25T12:55:39.394Z,7760
2018-08-25T12:56:49.116Z,7716
2018-08-25T12:57:59.102Z,7716
2018-08-25T12:59:08.948Z,7808
2018-08-25T13:00:18.771Z,8152
2018-08-25T13:01:28.502Z,8600
2018-08-25T13:02:38.494Z,8760
2018-08-25T13:03:48.468Z,8336
2018-08-25T13:04:58.174Z,7308
2018-08-25T13:06:07.890Z,6432
2018-08-25T13:07:17.700Z,6072
2018-08-25T13:08:27.744Z,6112
2018-08-25T13:09:37.726Z,6916
2018-08-25T13:10:47.727Z,7864
2018-08-25T13:11:57.454Z,8276
2018-08-25T13:13:07.843Z,7876
2018-08-25T13:14:17.646Z,7312
2018-08-25T13:15:27.378Z,7320
2018-08-25T13:16:37.356Z,7244
2018-08-25T13:17:46.551Z,7312
2018-08-25T13:18:56.934Z,7452
2018-08-25T13:20:07.216Z,7648
2018-08-25T13:21:17.195Z,7916
2018-08-25T13:22:26.912Z,8316
2018-08-25T13:23:37.205Z,8872
2018-08-25T13:24:47.204Z,9720
2018-08-25T13:25:57.239Z,9792
2018-08-25T13:27:07.223Z,9732
2018-08-25T13:28:17.255Z,9572
2018-08-25T13:29:27.239Z,9344
2018-08-25T13:30:37.208Z,8944
2018-08-25T13:31:47.196Z,8900
2018-08-25T13:32:57.170Z,9488
2018-08-25T13:34:07.142Z,10460
2018-08-25T13:35:17.115Z,11224
2018-08-25T13:36:26.829Z,11608
2018-08-25T13:37:36.799Z,11872
2018-08-25T13:38:46.322Z,11900
2018-08-25T13:39:56.518Z,11576
2018-08-25T13:41:06.347Z,11124
2018-08-25T13:42:16.323Z,10964
2018-08-25T13:43:26.038Z,11028
2018-08-25T13:44:36.033Z,11100
2018-08-25T13:45:46.023Z,11140
2018-08-25T13:46:56.008Z,11216
2018-08-25T13:48:05.731Z,11404
2018-08-25T13:49:15.454Z,11508
2018-08-25T13:50:25.170Z,11708
2018-08-25T13:51:34.884Z,12008
2018-08-25T13:52:45.282Z,12400
2018-08-25T13:53:55.273Z,12940
2018-08-25T13:55:05.241Z,13620
2018-08-25T13:56:14.948Z,14216
2018-08-25T13:57:24.938Z,14316
2018-08-25T13:58:34.928Z,14180
2018-08-25T13:59:44.658Z,13780
2018-08-25T14:00:54.637Z,13076
2018-08-25T14:02:04.616Z,12452
2018-08-25T14:03:14.600Z,12304
2018-08-25T14:04:24.308Z,12724
2018-08-25T14:05:34.043Z,12664
2018-08-25T14:06:43.765Z,12212
2018-08-25T14:07:53.743Z,12684
2018-08-25T14:09:03.713Z,13300
2018-08-25T14:10:13.435Z,13948
2018-08-25T14:11:23.406Z,14164
2018-08-25T14:12:33.375Z,14848
2018-08-25T14:13:43.337Z,16452
2018-08-25T14:14:53.312Z,17248
2018-08-25T14:16:03.794Z,17856
2018-08-25T14:17:13.546Z,17664
2018-08-25T14:18:23.543Z,15692
2018-08-25T14:19:33.516Z,13956
2018-08-25T14:20:43.256Z,13344
2018-08-25T14:21:52.961Z,13524
2018-08-25T14:23:02.934Z,13940
2018-08-25T14:24:12.925Z,14276
2018-08-25T14:25:22.654Z,14864
2018-08-25T14:26:32.623Z,15392
2018-08-25T14:27:42.586Z,15760
2018-08-25T14:28:52.810Z,15632
2018-08-25T14:30:02.991Z,14776
2018-08-25T14:31:12.978Z,14404
2018-08-25T14:32:22.968Z,14548
2018-08-25T14:33:32.936Z,15084
2018-08-25T14:34:42.664Z,15104
2018-08-25T14:35:52.652Z,14864
2018-08-25T14:37:02.612Z,14744
2018-08-25T14:38:12.574Z,14856
2018-08-25T14:39:22.035Z,14556
2018-08-25T14:40:32.014Z,13888
2018-08-25T14:41:42.189Z,13232
2018-08-25T14:42:52.313Z,13308
2018-08-25T14:44:02.289Z,14308
2018-08-25T14:45:12.274Z,15844
2018-08-25T14:46:22.249Z,17920
2018-08-25T14:47:32.152Z,20096
2018-08-25T14:48:42.160Z,21696
2018-08-25T14:49:52.143Z,21664
2018-08-25T14:51:02.132Z,22720
2018-08-25T14:52:12.125Z,25120
2018-08-25T14:53:22.103Z,26304
2018-08-25T14:54:32.091Z,25568
2018-08-25T14:55:42.069Z,23712
2018-08-25T14:56:52.031Z,22400
2018-08-25T14:58:01.740Z,22112
2018-08-25T14:59:11.758Z,22464
2018-08-25T15:00:21.969Z,23392
2018-08-25T15:01:32.066Z,25344
2018-08-25T15:02:41.834Z,28480
2018-08-25T15:03:51.827Z,32128
2018-08-25T15:05:01.800Z,86528
2018-08-25T15:06:11.775Z,44608
2018-08-25T15:07:21.766Z,57344
2018-08-25T15:08:31.735Z,54432
2018-08-25T15:09:41.705Z,89760
2018-08-25T15:10:51.449Z,83520
2018-08-25T15:12:01.176Z,83104
2018-08-25T15:13:10.651Z,79776
2018-08-25T15:14:20.664Z,73472
2018-08-25T15:15:30.640Z,74656
2018-08-25T15:16:40.626Z,75520
2018-08-25T15:17:50.620Z,75776
2018-08-25T15:19:00.629Z,73792
2018-08-25T15:20:10.629Z,72864
2018-08-25T15:21:20.615Z,69184
2018-08-25T15:22:30.347Z,73600
2018-08-25T15:23:40.069Z,69792
2018-08-25T15:24:50.091Z,75328
2018-08-25T15:25:59.554Z,71232
2018-08-25T15:27:09.541Z,73408
2018-08-25T15:28:19.308Z,61792
2018-08-25T15:29:29.482Z,69856
2018-08-25T15:30:39.454Z,30240
2018-08-25T15:31:49.436Z,30912
2018-08-25T15:32:59.155Z,46240
2018-08-25T15:34:09.147Z,61632
2018-08-25T15:35:19.116Z,28192
2018-08-25T15:36:29.090Z,28160
2018-08-25T15:37:38.794Z,26880
2018-08-25T15:38:48.769Z,25696